Estación de Algarrobo Bajo INIA

Ultimos registro cada 15 minutos 39
Estación Fecha / Hora Temperatura Humedad Lluvia Velocidad Dirección Radiación Presion
39 Algarrobo Bajo INIA 02-05-2026 09:30 11,1 73,2 0 1 196 318 0
38 Algarrobo Bajo INIA 02-05-2026 09:15 10,1 78,3 0 0,7 204 276 0
37 Algarrobo Bajo INIA 02-05-2026 09:00 9,6 82,3 0 0,2 195 234 0
36 Algarrobo Bajo INIA 02-05-2026 08:45 8,9 86,1 0 0 182 194 0
35 Algarrobo Bajo INIA 02-05-2026 08:30 8,2 90,1 0 0 0 153 0
34 Algarrobo Bajo INIA 02-05-2026 08:15 6,8 92,7 0 0,1 52 111 0
33 Algarrobo Bajo INIA 02-05-2026 08:00 5,8 94,1 0 0 0 62 0
32 Algarrobo Bajo INIA 02-05-2026 07:45 5,1 94 0 0 0 21 0
31 Algarrobo Bajo INIA 02-05-2026 07:30 4,6 94,7 0 0 0 6 0
30 Algarrobo Bajo INIA 02-05-2026 07:15 4,9 93,5 0 0 0 2 0
29 Algarrobo Bajo INIA 02-05-2026 07:00 4,6 93,2 0 0,2 44 0 0
28 Algarrobo Bajo INIA 02-05-2026 06:45 4,9 93,3 0 0,2 46 0 0
27 Algarrobo Bajo INIA 02-05-2026 06:30 5 93,4 0 0 0 0 0
26 Algarrobo Bajo INIA 02-05-2026 06:15 5,7 92,5 0 0 0 0 0
25 Algarrobo Bajo INIA 02-05-2026 06:00 5,4 93,3 0 0 0 0 0
24 Algarrobo Bajo INIA 02-05-2026 05:45 5,1 92,6 0 0,3 40 0 0
23 Algarrobo Bajo INIA 02-05-2026 05:30 5,7 91,8 0 0 0 0 0
22 Algarrobo Bajo INIA 02-05-2026 05:15 6 92,3 0 0 0 0 0
21 Algarrobo Bajo INIA 02-05-2026 05:00 6 92 0 0 0 0 0
20 Algarrobo Bajo INIA 02-05-2026 04:45 5,8 91,4 0 0 0 0 0
19 Algarrobo Bajo INIA 02-05-2026 04:30 6,3 91,8 0 0,1 60 0 0
18 Algarrobo Bajo INIA 02-05-2026 04:15 6,7 91,5 0 0 0 0 0
17 Algarrobo Bajo INIA 02-05-2026 04:00 6,3 91,1 0 0 0 0 0
16 Algarrobo Bajo INIA 02-05-2026 03:45 6,5 90,4 0 0 0 0 0
15 Algarrobo Bajo INIA 02-05-2026 03:30 6,4 90 0 0 0 0 0
14 Algarrobo Bajo INIA 02-05-2026 03:15 6,2 89,7 0 0 0 0 0
13 Algarrobo Bajo INIA 02-05-2026 03:00 6,4 88,9 0 0 0 0 0
12 Algarrobo Bajo INIA 02-05-2026 02:45 7,3 87,5 0 0 0 0 0
11 Algarrobo Bajo INIA 02-05-2026 02:30 7,9 87,6 0 0 0 0 0
10 Algarrobo Bajo INIA 02-05-2026 02:15 8,3 87,8 0 0 26 0 0
9 Algarrobo Bajo INIA 02-05-2026 02:00 8,1 87,6 0 0,4 49 0 0
8 Algarrobo Bajo INIA 02-05-2026 01:45 9,1 86,5 0 0 0 0 0
7 Algarrobo Bajo INIA 02-05-2026 01:30 8,6 88,2 0 0,3 19 0 0
6 Algarrobo Bajo INIA 02-05-2026 01:15 8 87,6 0 0,9 48 0 0
5 Algarrobo Bajo INIA 02-05-2026 01:00 8,2 86,7 0 1,1 43 0 0
4 Algarrobo Bajo INIA 02-05-2026 00:45 8,6 86,3 0 0,7 45 0 0
3 Algarrobo Bajo INIA 02-05-2026 00:30 8,9 86,4 0 0 0 0 0
2 Algarrobo Bajo INIA 02-05-2026 00:15 9,2 85,6 0 0,2 31 0 0
1 Algarrobo Bajo INIA 02-05-2026 00:00 8,8 85,5 0 0 300 0 0